sensor_id;sensor_type;location;lat;lon;timestamp;P1;P4;P2;P0;N10;N4;N25;N1;N05;TS
70689;SPS30;58266;52.166;5.290;2023-03-04T00:01:12;3.21;3.07;2.34;1.37;11.09;11.06;10.88;9.91;7.37;0.85
70689;SPS30;58266;52.166;5.290;2023-03-04T00:03:12;3.70;3.53;2.71;1.61;12.98;12.95;12.74;11.64;8.72;0.84
70689;SPS30;58266;52.166;5.290;2023-03-04T00:05:12;3.59;3.43;2.67;1.63;13.14;13.11;12.92;11.88;9.03;0.82
70689;SPS30;58266;52.166;5.290;2023-03-04T00:07:12;3.53;3.38;2.61;1.57;12.73;12.70;12.50;11.47;8.67;0.82
70689;SPS30;58266;52.166;5.290;2023-03-04T00:09:12;3.91;3.73;2.82;1.60;12.99;12.96;12.73;11.51;8.44;0.85
70689;SPS30;58266;52.166;5.290;2023-03-04T00:11:12;3.91;3.73;2.83;1.62;13.13;13.09;12.87;11.65;8.58;0.85
70689;SPS30;58266;52.166;5.290;2023-03-04T00:13:12;3.92;3.74;2.83;1.63;13.16;13.13;12.90;11.69;8.61;0.85
70689;SPS30;58266;52.166;5.290;2023-03-04T00:15:12;3.53;3.37;2.56;1.47;11.87;11.84;11.63;10.54;7.76;0.87
70689;SPS30;58266;52.166;5.290;2023-03-04T00:17:13;3.72;3.54;2.67;1.50;12.13;12.10;11.88;10.71;7.80;0.88
70689;SPS30;58266;52.166;5.290;2023-03-04T00:19:13;3.80;3.63;2.76;1.59;12.88;12.85;12.63;11.46;8.47;0.86
70689;SPS30;58266;52.166;5.290;2023-03-04T00:21:13;3.30;3.15;2.39;1.38;11.17;11.14;10.95;9.93;7.34;0.85
70689;SPS30;58266;52.166;5.290;2023-03-04T00:23:13;3.37;3.22;2.48;1.48;11.94;11.92;11.73;10.73;8.06;0.84
70689;SPS30;58266;52.166;5.290;2023-03-04T00:25:13;3.90;3.73;2.86;1.69;13.69;13.66;13.44;12.27;9.19;0.84
70689;SPS30;58266;52.166;5.290;2023-03-04T00:27:15;4.13;3.95;3.01;1.75;14.18;14.14;13.91;12.65;9.39;0.85
70689;SPS30;58266;52.166;5.290;2023-03-04T00:29:16;3.66;3.49;2.68;1.58;12.75;12.72;12.51;11.41;8.53;0.84
70689;SPS30;58266;52.166;5.290;2023-03-04T00:31:16;3.48;3.33;2.59;1.58;12.74;12.71;12.52;11.52;8.75;0.82
70689;SPS30;58266;52.166;5.290;2023-03-04T00:33:16;3.38;3.24;2.54;1.59;12.84;12.81;12.63;11.69;9.00;0.80
70689;SPS30;58266;52.166;5.290;2023-03-04T00:35:16;2.98;2.86;2.24;1.39;11.23;11.21;11.05;10.22;7.84;0.80
70689;SPS30;58266;52.166;5.290;2023-03-04T00:37:16;3.69;3.53;2.74;1.67;13.46;13.43;13.23;12.16;9.23;0.82
70689;SPS30;58266;52.166;5.290;2023-03-04T00:39:16;3.33;3.18;2.45;1.47;11.86;11.83;11.65;10.66;8.03;0.83
70689;SPS30;58266;52.166;5.290;2023-03-04T00:41:16;3.87;3.70;2.85;1.71;13.82;13.79;13.58;12.44;9.38;0.82
70689;SPS30;58266;52.166;5.290;2023-03-04T00:43:16;3.55;3.39;2.61;1.56;12.61;12.58;12.39;11.34;8.53;0.84
70689;SPS30;58266;52.166;5.290;2023-03-04T00:45:17;2.92;2.79;2.14;1.26;10.23;10.21;10.04;9.17;6.86;0.85
70689;SPS30;58266;52.166;5.290;2023-03-04T00:47:17;3.39;3.23;2.46;1.42;11.52;11.49;11.30;10.26;7.59;0.86
70689;SPS30;58266;52.166;5.290;2023-03-04T00:49:17;3.82;3.64;2.73;1.53;12.37;12.33;12.10;10.89;7.90;0.88
70689;SPS30;58266;52.166;5.290;2023-03-04T00:51:18;3.78;3.60;2.72;1.54;12.47;12.44;12.22;11.03;8.07;0.86
70689;SPS30;58266;52.166;5.290;2023-03-04T00:53:19;4.29;4.09;3.11;1.78;14.42;14.38;14.13;12.81;9.43;0.86
70689;SPS30;58266;52.166;5.290;2023-03-04T00:55:19;4.21;4.02;3.06;1.77;14.37;14.33;14.09;12.80;9.48;0.85
70689;SPS30;58266;52.166;5.290;2023-03-04T00:57:19;3.40;3.24;2.48;1.46;11.80;11.77;11.58;10.55;7.88;0.83
70689;SPS30;58266;52.166;5.290;2023-03-04T00:59:19;4.00;3.82;2.92;1.70;13.79;13.76;13.53;12.32;9.17;0.84
70689;SPS30;58266;52.166;5.290;2023-03-04T01:01:20;3.45;3.29;2.53;1.49;12.09;12.06;11.86;10.83;8.11;0.83
70689;SPS30;58266;52.166;5.290;2023-03-04T01:03:20;3.84;3.66;2.80;1.64;13.24;13.21;12.99;11.83;8.81;0.84
70689;SPS30;58266;52.166;5.290;2023-03-04T01:05:20;3.76;3.59;2.73;1.57;12.74;12.71;12.49;11.33;8.37;0.85
70689;SPS30;58266;52.166;5.290;2023-03-04T01:07:20;3.73;3.56;2.70;1.55;12.56;12.53;12.31;11.16;8.22;0.85
70689;SPS30;58266;52.166;5.290;2023-03-04T01:09:21;4.05;3.86;2.91;1.65;13.36;13.32;13.09;11.82;8.64;0.85
70689;SPS30;58266;52.166;5.290;2023-03-04T01:11:21;4.00;3.81;2.86;1.61;13.01;12.97;12.73;11.47;8.34;0.84
70689;SPS30;58266;52.166;5.290;2023-03-04T01:13:21;3.79;3.61;2.72;1.52;12.35;12.31;12.09;10.89;7.91;0.84
70689;SPS30;58266;52.166;5.290;2023-03-04T01:15:21;3.72;3.55;2.69;1.53;12.41;12.37;12.16;11.00;8.08;0.82
70689;SPS30;58266;52.166;5.290;2023-03-04T01:17:22;3.84;3.66;2.78;1.59;12.89;12.85;12.63;11.44;8.42;0.82
70689;SPS30;58266;52.166;5.290;2023-03-04T01:19:23;3.38;3.23;2.44;1.39;11.30;11.27;11.07;10.02;7.36;0.84
70689;SPS30;58266;52.166;5.290;2023-03-04T01:21:23;3.91;3.73;2.82;1.62;13.09;13.06;12.83;11.62;8.55;0.83
70689;SPS30;58266;52.166;5.290;2023-03-04T01:23:24;3.67;3.51;2.70;1.61;13.00;12.97;12.77;11.68;8.77;0.80
70689;SPS30;58266;52.166;5.290;2023-03-04T01:25:24;3.37;3.22;2.49;1.50;12.09;12.06;11.88;10.89;8.23;0.80
70689;SPS30;58266;52.166;5.290;2023-03-04T01:27:30;3.63;3.47;2.68;1.60;12.91;12.88;12.68;11.60;8.73;0.82
70689;SPS30;58266;52.166;5.290;2023-03-04T01:31:35;4.05;3.86;2.91;1.64;13.28;13.25;13.01;11.73;8.55;0.88
70689;SPS30;58266;52.166;5.290;2023-03-04T01:33:35;3.57;3.40;2.59;1.50;12.17;12.13;11.93;10.84;8.03;0.86
70689;SPS30;58266;52.166;5.290;2023-03-04T01:35:37;3.57;3.41;2.62;1.55;12.52;12.49;12.29;11.22;8.40;0.85
70689;SPS30;58266;52.166;5.290;2023-03-04T01:37:37;3.79;3.62;2.77;1.62;13.12;13.09;12.88;11.73;8.75;0.85
70689;SPS30;58266;52.166;5.290;2023-03-04T01:39:37;2.88;2.76;2.13;1.29;10.41;10.39;10.23;9.39;7.11;0.84
70689;SPS30;58266;52.166;5.290;2023-03-04T01:41:37;3.29;3.14;2.42;1.44;11.65;11.62;11.44;10.46;7.86;0.84
70689;SPS30;58266;52.166;5.290;2023-03-04T01:43:37;3.24;3.10;2.39;1.43;11.59;11.56;11.38;10.43;7.86;0.83
70689;SPS30;58266;52.166;5.290;2023-03-04T01:45:38;3.42;3.26;2.49;1.45;11.71;11.68;11.49;10.44;7.75;0.85
70689;SPS30;58266;52.166;5.290;2023-03-04T01:47:38;3.42;3.27;2.48;1.43;11.61;11.58;11.38;10.33;7.64;0.86
70689;SPS30;58266;52.166;5.290;2023-03-04T01:49:38;3.44;3.29;2.51;1.46;11.78;11.75;11.55;10.50;7.79;0.85
70689;SPS30;58266;52.166;5.290;2023-03-04T01:51:39;3.25;3.10;2.38;1.40;11.31;11.29;11.10;10.13;7.56;0.85
70689;SPS30;58266;52.166;5.290;2023-03-04T01:53:41;3.04;2.90;2.24;1.35;10.92;10.89;10.73;9.84;7.43;0.84
70689;SPS30;58266;52.166;5.290;2023-03-04T01:55:42;2.99;2.86;2.21;1.33;10.74;10.72;10.55;9.67;7.30;0.84
70689;SPS30;58266;52.166;5.290;2023-03-04T01:57:42;3.53;3.38;2.60;1.55;12.50;12.47;12.27;11.22;8.43;0.84
70689;SPS30;58266;52.166;5.290;2023-03-04T01:59:43;3.46;3.31;2.52;1.47;11.87;11.84;11.64;10.59;7.86;0.86
70689;SPS30;58266;52.166;5.290;2023-03-04T02:01:45;3.55;3.38;2.55;1.44;11.69;11.66;11.45;10.34;7.56;0.88
70689;SPS30;58266;52.166;5.290;2023-03-04T02:03:45;3.65;3.48;2.64;1.50;12.15;12.12;11.91;10.77;7.90;0.88
70689;SPS30;58266;52.166;5.290;2023-03-04T02:05:47;3.52;3.35;2.53;1.43;11.56;11.52;11.32;10.21;7.45;0.89
70689;SPS30;58266;52.166;5.290;2023-03-04T02:07:48;3.59;3.42;2.58;1.46;11.81;11.78;11.57;10.44;7.62;0.89
70689;SPS30;58266;52.166;5.290;2023-03-04T02:09:49;3.25;3.10;2.34;1.33;10.74;10.71;10.52;9.50;6.95;0.88
70689;SPS30;58266;52.166;5.290;2023-03-04T02:11:50;3.55;3.38;2.56;1.46;11.80;11.77;11.56;10.45;7.67;0.87
70689;SPS30;58266;52.166;5.290;2023-03-04T02:13:51;3.28;3.13;2.37;1.35;10.94;10.91;10.72;9.70;7.12;0.87
70689;SPS30;58266;52.166;5.290;2023-03-04T02:15:52;3.03;2.89;2.19;1.24;10.06;10.03;9.85;8.90;6.52;0.88
70689;SPS30;58266;52.166;5.290;2023-03-04T02:17:53;3.20;3.05;2.31;1.32;10.71;10.69;10.50;9.51;7.00;0.85
70689;SPS30;58266;52.166;5.290;2023-03-04T02:22:11;3.34;3.18;2.37;1.29;10.46;10.43;10.23;9.14;6.54;0.88
70689;SPS30;58266;52.166;5.290;2023-03-04T02:26:31;3.63;3.46;2.60;1.46;11.83;11.80;11.58;10.43;7.59;0.87
70689;SPS30;58266;52.166;5.290;2023-03-04T02:28:31;3.51;3.34;2.51;1.41;11.41;11.38;11.17;10.06;7.32;0.87
70689;SPS30;58266;52.166;5.290;2023-03-04T02:30:34;3.19;3.04;2.31;1.34;10.81;10.79;10.60;9.63;7.12;0.85
70689;SPS30;58266;52.166;5.290;2023-03-04T02:32:34;3.12;2.98;2.29;1.36;10.99;10.97;10.79;9.86;7.40;0.83
70689;SPS30;58266;52.166;5.290;2023-03-04T02:34:34;3.26;3.12;2.39;1.41;11.42;11.40;11.21;10.24;7.66;0.82
70689;SPS30;58266;52.166;5.290;2023-03-04T02:36:39;2.90;2.77;2.13;1.26;10.19;10.17;10.01;9.14;6.85;0.82
70689;SPS30;58266;52.166;5.290;2023-03-04T02:38:41;2.68;2.57;1.99;1.20;9.71;9.69;9.55;8.76;6.64;0.80
70689;SPS30;58266;52.166;5.290;2023-03-04T02:40:43;2.65;2.54;2.00;1.25;10.09;10.07;9.93;9.19;7.07;0.78
70689;SPS30;58266;52.166;5.290;2023-03-04T02:42:46;2.83;2.71;2.13;1.33;10.77;10.75;10.60;9.82;7.56;0.78
70689;SPS30;58266;52.166;5.290;2023-03-04T02:44:46;2.73;2.62;2.04;1.25;10.07;10.05;9.90;9.12;6.95;0.80
70689;SPS30;58266;52.166;5.290;2023-03-04T02:46:48;2.95;2.82;2.17;1.30;10.48;10.45;10.29;9.42;7.09;0.82
70689;SPS30;58266;52.166;5.290;2023-03-04T02:48:48;3.25;3.10;2.38;1.40;11.30;11.27;11.09;10.11;7.54;0.82
70689;SPS30;58266;52.166;5.290;2023-03-04T02:50:50;3.04;2.90;2.20;1.27;10.29;10.26;10.08;9.15;6.76;0.83
70689;SPS30;58266;52.166;5.290;2023-03-04T02:52:51;2.96;2.82;2.17;1.29;10.41;10.39;10.22;9.34;7.01;0.82
70689;SPS30;58266;52.166;5.290;2023-03-04T02:54:51;3.03;2.90;2.24;1.35;10.92;10.90;10.73;9.85;7.44;0.81
70689;SPS30;58266;52.166;5.290;2023-03-04T02:56:53;3.24;3.10;2.41;1.48;11.96;11.94;11.76;10.84;8.26;0.80
70689;SPS30;58266;52.166;5.290;2023-03-04T02:58:54;3.20;3.06;2.37;1.43;11.57;11.55;11.37;10.44;7.90;0.81
70689;SPS30;58266;52.166;5.290;2023-03-04T03:00:54;3.00;2.87;2.22;1.34;10.84;10.82;10.65;9.78;7.40;0.82
70689;SPS30;58266;52.166;5.290;2023-03-04T03:02:55;3.13;3.00;2.32;1.41;11.39;11.37;11.20;10.29;7.80;0.83
70689;SPS30;58266;52.166;5.290;2023-03-04T03:04:55;2.68;2.57;1.99;1.20;9.72;9.70;9.55;8.77;6.64;0.84
70689;SPS30;58266;52.166;5.290;2023-03-04T03:06:55;2.98;2.86;2.22;1.36;11.00;10.98;10.82;9.96;7.59;0.82
70689;SPS30;58266;52.166;5.290;2023-03-04T03:08:55;2.46;2.36;1.85;1.16;9.33;9.31;9.18;8.49;6.53;0.81
70689;SPS30;58266;52.166;5.290;2023-03-04T03:10:56;2.95;2.83;2.21;1.37;11.06;11.04;10.88;10.05;7.70;0.81
70689;SPS30;58266;52.166;5.290;2023-03-04T03:12:56;3.31;3.18;2.49;1.55;12.55;12.52;12.35;11.42;8.78;0.81
70689;SPS30;58266;52.166;5.290;2023-03-04T03:14:56;3.26;3.13;2.48;1.58;12.78;12.75;12.59;11.70;9.09;0.78
70689;SPS30;58266;52.166;5.290;2023-03-04T03:16:56;3.15;3.02;2.38;1.49;12.04;12.02;11.85;10.98;8.46;0.79
70689;SPS30;58266;52.166;5.290;2023-03-04T03:18:57;3.12;2.99;2.34;1.45;11.71;11.69;11.52;10.64;8.15;0.82
70689;SPS30;58266;52.166;5.290;2023-03-04T03:20:59;3.07;2.94;2.30;1.43;11.54;11.52;11.36;10.49;8.05;0.81
70689;SPS30;58266;52.166;5.290;2023-03-04T03:23:00;3.00;2.88;2.25;1.39;11.19;11.16;11.00;10.15;7.76;0.81
70689;SPS30;58266;52.166;5.290;2023-03-04T03:25:02;2.55;2.44;1.90;1.17;9.49;9.47;9.33;8.61;6.58;0.81
70689;SPS30;58266;52.166;5.290;2023-03-04T03:27:11;2.43;2.33;1.80;1.10;8.87;8.85;8.72;8.02;6.09;0.82
70689;SPS30;58266;52.166;5.290;2023-03-04T03:29:11;2.62;2.51;1.95;1.19;9.62;9.60;9.46;8.70;6.62;0.82
70689;SPS30;58266;52.166;5.290;2023-03-04T03:31:11;2.68;2.56;1.98;1.19;9.64;9.62;9.47;8.69;6.57;0.82
70689;SPS30;58266;52.166;5.290;2023-03-04T03:33:11;2.59;2.48;1.94;1.21;9.77;9.75;9.61;8.88;6.82;0.81
70689;SPS30;58266;52.166;5.290;2023-03-04T03:35:11;2.30;2.21;1.74;1.10;8.88;8.86;8.74;8.11;6.26;0.81
70689;SPS30;58266;52.166;5.290;2023-03-04T03:37:11;2.69;2.58;2.03;1.27;10.27;10.25;10.11;9.37;7.22;0.81
70689;SPS30;58266;52.166;5.290;2023-03-04T03:39:12;2.45;2.35;1.87;1.20;9.65;9.63;9.50;8.84;6.88;0.81
70689;SPS30;58266;52.166;5.290;2023-03-04T03:41:13;2.48;2.37;1.87;1.17;9.44;9.42;9.29;8.61;6.63;0.82
70689;SPS30;58266;52.166;5.290;2023-03-04T03:43:13;2.25;2.16;1.69;1.05;8.49;8.47;8.35;7.72;5.92;0.81
70689;SPS30;58266;52.166;5.290;2023-03-04T03:45:13;2.55;2.44;1.90;1.16;9.39;9.37;9.23;8.50;6.47;0.82
70689;SPS30;58266;52.166;5.290;2023-03-04T03:47:13;2.85;2.73;2.11;1.27;10.29;10.26;10.11;9.27;7.01;0.83
70689;SPS30;58266;52.166;5.290;2023-03-04T03:49:13;2.73;2.61;2.03;1.23;9.98;9.95;9.81;9.02;6.85;0.83
70689;SPS30;58266;52.166;5.290;2023-03-04T03:51:13;2.14;2.05;1.58;0.94;7.64;7.62;7.50;6.87;5.17;0.85
70689;SPS30;58266;52.166;5.290;2023-03-04T03:53:14;2.44;2.33;1.77;1.03;8.31;8.28;8.15;7.40;5.48;0.86
70689;SPS30;58266;52.166;5.290;2023-03-04T03:55:14;3.04;2.90;2.21;1.28;10.35;10.32;10.15;9.22;6.83;0.86
70689;SPS30;58266;52.166;5.290;2023-03-04T03:57:14;2.96;2.83;2.16;1.27;10.25;10.22;10.05;9.16;6.82;0.86
70689;SPS30;58266;52.166;5.290;2023-03-04T03:59:14;2.97;2.84;2.19;1.30;10.54;10.51;10.35;9.46;7.11;0.85
70689;SPS30;58266;52.166;5.290;2023-03-04T04:01:14;2.46;2.35;1.80;1.07;8.62;8.60;8.46;7.73;5.78;0.85
70689;SPS30;58266;52.166;5.290;2023-03-04T04:03:15;2.99;2.86;2.19;1.30;10.49;10.46;10.29;9.40;7.03;0.84
70689;SPS30;58266;52.166;5.290;2023-03-04T04:05:17;2.76;2.64;2.03;1.21;9.80;9.77;9.62;8.80;6.62;0.84
70689;SPS30;58266;52.166;5.290;2023-03-04T04:07:17;2.35;2.25;1.71;0.99;7.99;7.97;7.83;7.11;5.26;0.87
70689;SPS30;58266;52.166;5.290;2023-03-04T04:09:18;2.47;2.36;1.82;1.09;8.80;8.78;8.64;7.91;5.95;0.85
70689;SPS30;58266;52.166;5.290;2023-03-04T04:11:18;2.16;2.07;1.62;1.00;8.08;8.07;7.95;7.34;5.62;0.81
70689;SPS30;58266;52.166;5.290;2023-03-04T04:13:18;2.27;2.17;1.69;1.04;8.37;8.35;8.23;7.58;5.78;0.83
70689;SPS30;58266;52.166;5.290;2023-03-04T04:15:18;2.42;2.31;1.79;1.09;8.80;8.78;8.65;7.95;6.03;0.83
70689;SPS30;58266;52.166;5.290;2023-03-04T04:17:18;2.58;2.47;1.92;1.17;9.46;9.44;9.30;8.56;6.51;0.82
70689;SPS30;58266;52.166;5.290;2023-03-04T04:19:19;1.88;1.80;1.38;0.81;6.59;6.58;6.47;5.91;4.42;0.84
70689;SPS30;58266;52.166;5.290;2023-03-04T04:21:20;2.44;2.33;1.76;1.01;8.19;8.17;8.03;7.27;5.35;0.87
70689;SPS30;58266;52.166;5.290;2023-03-04T04:23:20;2.38;2.27;1.71;0.97;7.86;7.83;7.69;6.95;5.08;0.87
70689;SPS30;58266;52.166;5.290;2023-03-04T04:25:21;2.30;2.19;1.65;0.93;7.51;7.49;7.36;6.63;4.83;0.87
70689;SPS30;58266;52.166;5.290;2023-03-04T04:27:21;2.24;2.13;1.62;0.93;7.52;7.50;7.37;6.68;4.92;0.86
70689;SPS30;58266;52.166;5.290;2023-03-04T04:29:21;1.92;1.83;1.39;0.79;6.43;6.41;6.30;5.70;4.19;0.86
70689;SPS30;58266;52.166;5.290;2023-03-04T04:31:21;2.37;2.26;1.72;1.00;8.10;8.08;7.94;7.22;5.36;0.85
70689;SPS30;58266;52.166;5.290;2023-03-04T04:33:21;2.32;2.21;1.69;0.98;7.94;7.92;7.79;7.08;5.25;0.86
70689;SPS30;58266;52.166;5.290;2023-03-04T04:35:21;2.17;2.07;1.57;0.91;7.34;7.33;7.20;6.53;4.82;0.86
70689;SPS30;58266;52.166;5.290;2023-03-04T04:37:22;2.39;2.28;1.73;0.99;8.05;8.03;7.89;7.15;5.28;0.85
70689;SPS30;58266;52.166;5.290;2023-03-04T04:41:26;2.60;2.48;1.88;1.07;8.66;8.64;8.48;7.67;5.63;0.87
70689;SPS30;58266;52.166;5.290;2023-03-04T04:43:27;2.46;2.34;1.78;1.02;8.28;8.26;8.12;7.36;5.43;0.87
70689;SPS30;58266;52.166;5.290;2023-03-04T04:45:28;2.39;2.28;1.74;1.02;8.22;8.20;8.07;7.34;5.46;0.87
70689;SPS30;58266;52.166;5.290;2023-03-04T04:47:28;2.35;2.25;1.72;1.02;8.23;8.21;8.08;7.38;5.52;0.86
70689;SPS30;58266;52.166;5.290;2023-03-04T04:49:28;2.06;1.97;1.52;0.90;7.28;7.26;7.15;6.53;4.90;0.86
70689;SPS30;58266;52.166;5.290;2023-03-04T04:51:28;2.05;1.96;1.51;0.91;7.37;7.36;7.24;6.64;5.02;0.84
70689;SPS30;58266;52.166;5.290;2023-03-04T04:53:28;2.36;2.26;1.77;1.10;8.86;8.84;8.72;8.05;6.17;0.82
70689;SPS30;58266;52.166;5.290;2023-03-04T04:55:29;2.31;2.22;1.74;1.08;8.71;8.69;8.57;7.92;6.07;0.81
70689;SPS30;58266;52.166;5.290;2023-03-04T04:57:29;2.16;2.08;1.63;1.01;8.18;8.16;8.04;7.44;5.71;0.80
70689;SPS30;58266;52.166;5.290;2023-03-04T04:59:30;2.47;2.37;1.87;1.20;9.65;9.63;9.50;8.83;6.86;0.79
70689;SPS30;58266;52.166;5.290;2023-03-04T05:01:31;2.21;2.12;1.67;1.06;8.58;8.57;8.45;7.85;6.09;0.79
70689;SPS30;58266;52.166;5.290;2023-03-04T05:03:33;2.33;2.24;1.78;1.15;9.26;9.24;9.12;8.50;6.63;0.79
70689;SPS30;58266;52.166;5.290;2023-03-04T05:05:33;2.46;2.37;1.90;1.26;10.14;10.12;10.00;9.37;7.39;0.77
70689;SPS30;58266;52.166;5.290;2023-03-04T05:07:34;2.64;2.54;2.03;1.32;10.65;10.63;10.50;9.80;7.68;0.76
70689;SPS30;58266;52.166;5.290;2023-03-04T05:09:34;2.27;2.18;1.75;1.14;9.21;9.19;9.08;8.48;6.66;0.75
70689;SPS30;58266;52.166;5.290;2023-03-04T05:11:36;2.49;2.40;1.93;1.28;10.28;10.26;10.15;9.51;7.50;0.76
70689;SPS30;58266;52.166;5.290;2023-03-04T05:13:36;2.41;2.32;1.84;1.19;9.61;9.59;9.47;8.83;6.89;0.78
70689;SPS30;58266;52.166;5.290;2023-03-04T05:15:37;2.56;2.46;1.94;1.23;9.90;9.88;9.75;9.04;7.00;0.80
70689;SPS30;58266;52.166;5.290;2023-03-04T05:17:37;2.32;2.22;1.74;1.08;8.70;8.68;8.56;7.91;6.06;0.81
70689;SPS30;58266;52.166;5.290;2023-03-04T05:19:37;2.52;2.42;1.89;1.17;9.47;9.45;9.32;8.60;6.60;0.80
70689;SPS30;58266;52.166;5.290;2023-03-04T05:21:37;2.74;2.62;2.06;1.29;10.43;10.41;10.26;9.50;7.32;0.79
70689;SPS30;58266;52.166;5.290;2023-03-04T05:23:38;2.85;2.73;2.16;1.38;11.13;11.11;10.96;10.19;7.91;0.78
70689;SPS30;58266;52.166;5.290;2023-03-04T05:25:39;2.46;2.37;1.88;1.21;9.72;9.70;9.58;8.92;6.94;0.79
70689;SPS30;58266;52.166;5.290;2023-03-04T05:27:39;2.41;2.31;1.83;1.16;9.37;9.35;9.23;8.58;6.65;0.80
70689;SPS30;58266;52.166;5.290;2023-03-04T05:29:39;1.83;1.76;1.42;0.93;7.53;7.52;7.43;6.96;5.48;0.77
70689;SPS30;58266;52.166;5.290;2023-03-04T05:31:39;2.05;1.97;1.59;1.07;8.60;8.58;8.49;7.97;6.32;0.76
70689;SPS30;58266;52.166;5.290;2023-03-04T05:33:39;2.23;2.15;1.74;1.16;9.38;9.36;9.26;8.70;6.90;0.75
70689;SPS30;58266;52.166;5.290;2023-03-04T05:35:40;2.27;2.19;1.76;1.17;9.44;9.42;9.31;8.73;6.90;0.76
70689;SPS30;58266;52.166;5.290;2023-03-04T05:37:40;2.34;2.25;1.80;1.17;9.44;9.42;9.31;8.69;6.81;0.78
70689;SPS30;58266;52.166;5.290;2023-03-04T05:39:40;2.63;2.53;2.02;1.32;10.63;10.61;10.48;9.79;7.67;0.78
70689;SPS30;58266;52.166;5.290;2023-03-04T05:41:41;2.70;2.60;2.10;1.41;11.34;11.32;11.19;10.51;8.33;0.76
70689;SPS30;58266;52.166;5.290;2023-03-04T05:43:41;2.25;2.18;1.79;1.24;9.99;9.97;9.88;9.35;7.51;0.72
70689;SPS30;58266;52.166;5.290;2023-03-04T05:45:41;2.10;2.04;1.70;1.21;9.76;9.75;9.66;9.20;7.47;0.70
70689;SPS30;58266;52.166;5.290;2023-03-04T05:47:41;2.12;2.05;1.69;1.19;9.57;9.56;9.47;8.98;7.25;0.71
70689;SPS30;58266;52.166;5.290;2023-03-04T05:49:42;2.20;2.12;1.77;1.25;10.05;10.03;9.94;9.44;7.65;0.70
70689;SPS30;58266;52.166;5.290;2023-03-04T05:51:42;2.39;2.30;1.88;1.28;10.28;10.27;10.16;9.58;7.64;0.73
70689;SPS30;58266;52.166;5.290;2023-03-04T05:53:42;2.18;2.10;1.71;1.16;9.31;9.30;9.20;8.66;6.90;0.73
70689;SPS30;58266;52.166;5.290;2023-03-04T05:55:44;2.09;2.02;1.66;1.16;9.32;9.30;9.21;8.72;7.02;0.70
70689;SPS30;58266;52.166;5.290;2023-03-04T05:57:44;1.84;1.78;1.47;1.03;8.27;8.25;8.17;7.75;6.25;0.71
70689;SPS30;58266;52.166;5.290;2023-03-04T05:59:46;1.73;1.67;1.38;0.96;7.73;7.72;7.64;7.24;5.83;0.71
70689;SPS30;58266;52.166;5.290;2023-03-04T06:01:46;2.39;2.30;1.89;1.30;10.47;10.46;10.35;9.78;7.84;0.73
70689;SPS30;58266;52.166;5.290;2023-03-04T06:03:46;2.41;2.33;1.92;1.34;10.80;10.79;10.68;10.12;8.16;0.73
70689;SPS30;58266;52.166;5.290;2023-03-04T06:05:50;2.28;2.21;1.82;1.26;10.16;10.14;10.04;9.51;7.65;0.75
70689;SPS30;58266;52.166;5.290;2023-03-04T06:07:50;2.32;2.23;1.83;1.25;10.06;10.04;9.94;9.38;7.50;0.76
70689;SPS30;58266;52.166;5.290;2023-03-04T06:09:50;2.59;2.50;2.02;1.35;10.91;10.89;10.77;10.12;8.02;0.77
70689;SPS30;58266;52.166;5.290;2023-03-04T06:11:50;2.14;2.07;1.69;1.15;9.25;9.23;9.13;8.61;6.87;0.75
70689;SPS30;58266;52.166;5.290;2023-03-04T06:13:50;2.13;2.06;1.68;1.14;9.20;9.18;9.09;8.57;6.84;0.75
70689;SPS30;58266;52.166;5.290;2023-03-04T06:15:54;2.29;2.21;1.78;1.19;9.62;9.61;9.50;8.92;7.07;0.75
70689;SPS30;58266;52.166;5.290;2023-03-04T06:17:54;2.82;2.71;2.16;1.39;11.19;11.17;11.03;10.27;8.00;0.77
70689;SPS30;58266;52.166;5.290;2023-03-04T06:19:54;2.48;2.38;1.91;1.25;10.07;10.05;9.93;9.28;7.29;0.76
70689;SPS30;58266;52.166;5.290;2023-03-04T06:24:00;2.49;2.40;1.92;1.26;10.18;10.16;10.04;9.39;7.38;0.79
70689;SPS30;58266;52.166;5.290;2023-03-04T06:26:00;2.25;2.17;1.74;1.15;9.23;9.22;9.11;8.53;6.71;0.79
70689;SPS30;58266;52.166;5.290;2023-03-04T06:28:01;2.58;2.48;1.99;1.30;10.47;10.45;10.32;9.64;7.57;0.80
70689;SPS30;58266;52.166;5.290;2023-03-04T06:30:01;2.41;2.32;1.85;1.19;9.62;9.61;9.49;8.85;6.91;0.80
70689;SPS30;58266;52.166;5.290;2023-03-04T06:32:10;2.77;2.66;2.11;1.35;10.86;10.84;10.70;9.95;7.74;0.82
70689;SPS30;58266;52.166;5.290;2023-03-04T06:34:10;2.41;2.31;1.81;1.13;9.16;9.14;9.02;8.35;6.43;0.82
70689;SPS30;58266;52.166;5.290;2023-03-04T06:36:11;2.93;2.81;2.19;1.34;10.86;10.84;10.68;9.84;7.51;0.83
70689;SPS30;58266;52.166;5.290;2023-03-04T06:38:12;2.83;2.71;2.13;1.33;10.75;10.72;10.58;9.79;7.53;0.81
70689;SPS30;58266;52.166;5.290;2023-03-04T06:40:14;2.15;2.06;1.62;1.02;8.20;8.18;8.07;7.47;5.76;0.81
70689;SPS30;58266;52.166;5.290;2023-03-04T06:42:14;2.77;2.65;2.07;1.28;10.38;10.35;10.21;9.43;7.22;0.82
70689;SPS30;58266;52.166;5.290;2023-03-04T06:44:14;2.66;2.55;1.98;1.21;9.74;9.72;9.58;8.81;6.69;0.81
70689;SPS30;58266;52.166;5.290;2023-03-04T06:46:14;2.45;2.35;1.85;1.17;9.44;9.43;9.30;8.63;6.67;0.78
70689;SPS30;58266;52.166;5.290;2023-03-04T06:48:20;2.85;2.74;2.17;1.39;11.20;11.18;11.03;10.26;7.98;0.77
70689;SPS30;58266;52.166;5.290;2023-03-04T06:50:20;2.23;2.15;1.73;1.14;9.22;9.20;9.09;8.52;6.72;0.77
70689;SPS30;58266;52.166;5.290;2023-03-04T06:52:20;2.31;2.23;1.80;1.20;9.65;9.64;9.53;8.94;7.07;0.77
70689;SPS30;58266;52.166;5.290;2023-03-04T06:54:21;2.33;2.25;1.83;1.24;10.03;10.01;9.90;9.33;7.44;0.76
70689;SPS30;58266;52.166;5.290;2023-03-04T06:56:23;2.45;2.37;1.93;1.32;10.64;10.62;10.51;9.92;7.93;0.76
70689;SPS30;58266;52.166;5.290;2023-03-04T06:58:24;2.37;2.29;1.88;1.30;10.44;10.43;10.32;9.76;7.83;0.75
70689;SPS30;58266;52.166;5.290;2023-03-04T07:00:24;1.85;1.79;1.46;1.00;8.03;8.02;7.93;7.49;5.98;0.75
70689;SPS30;58266;52.166;5.290;2023-03-04T07:02:25;2.01;1.94;1.60;1.11;8.96;8.94;8.86;8.39;6.75;0.74
70689;SPS30;58266;52.166;5.290;2023-03-04T07:04:25;2.16;2.09;1.72;1.20;9.69;9.68;9.58;9.08;7.32;0.74
70689;SPS30;58266;52.166;5.290;2023-03-04T07:06:26;1.99;1.92;1.57;1.09;8.77;8.75;8.66;8.20;6.58;0.74
70689;SPS30;58266;52.166;5.290;2023-03-04T07:08:27;2.07;1.99;1.63;1.11;8.98;8.96;8.87;8.37;6.69;0.74
70689;SPS30;58266;52.166;5.290;2023-03-04T07:10:27;1.71;1.65;1.35;0.92;7.38;7.36;7.29;6.87;5.48;0.75
70689;SPS30;58266;52.166;5.290;2023-03-04T07:12:27;2.08;2.01;1.65;1.14;9.15;9.14;9.05;8.55;6.86;0.74
70689;SPS30;58266;52.166;5.290;2023-03-04T07:14:29;1.79;1.73;1.41;0.97;7.78;7.77;7.69;7.26;5.80;0.74
70689;SPS30;58266;52.166;5.290;2023-03-04T07:16:30;1.98;1.91;1.57;1.09;8.78;8.76;8.68;8.21;6.60;0.72
70689;SPS30;58266;52.166;5.290;2023-03-04T07:18:30;1.73;1.67;1.39;0.98;7.91;7.90;7.83;7.44;6.03;0.71
70689;SPS30;58266;52.166;5.290;2023-03-04T07:20:31;1.55;1.50;1.25;0.89;7.19;7.18;7.12;6.77;5.50;0.70
70689;SPS30;58266;52.166;5.290;2023-03-04T07:22:31;1.92;1.86;1.56;1.13;9.09;9.08;9.00;8.59;7.01;0.70
70689;SPS30;58266;52.166;5.290;2023-03-04T07:24:37;2.00;1.94;1.64;1.19;9.54;9.53;9.45;9.02;7.37;0.71
70689;SPS30;58266;52.166;5.290;2023-03-04T07:26:39;1.79;1.74;1.48;1.09;8.77;8.76;8.69;8.32;6.84;0.70
70689;SPS30;58266;52.166;5.290;2023-03-04T07:28:42;1.98;1.93;1.65;1.24;9.95;9.94;9.86;9.48;7.84;0.68
70689;SPS30;58266;52.166;5.290;2023-03-04T07:30:44;1.56;1.52;1.32;1.02;8.18;8.17;8.12;7.84;6.53;0.66
70689;SPS30;58266;52.166;5.290;2023-03-04T07:32:44;2.00;1.95;1.70;1.32;10.62;10.61;10.55;10.20;8.52;0.66
70689;SPS30;58266;52.166;5.290;2023-03-04T07:34:45;1.74;1.70;1.50;1.19;9.51;9.50;9.45;9.16;7.69;0.65
70689;SPS30;58266;52.166;5.290;2023-03-04T07:36:46;1.64;1.60;1.42;1.13;9.03;9.02;8.97;8.71;7.32;0.65
70689;SPS30;58266;52.166;5.290;2023-03-04T07:38:46;1.52;1.48;1.31;1.03;8.29;8.29;8.24;7.99;6.71;0.66
70689;SPS30;58266;52.166;5.290;2023-03-04T07:40:53;1.77;1.73;1.55;1.26;10.07;10.06;10.01;9.75;8.25;0.64
70689;SPS30;58266;52.166;5.290;2023-03-04T07:42:54;1.79;1.75;1.58;1.29;10.35;10.34;10.29;10.04;8.52;0.62
70689;SPS30;58266;52.166;5.290;2023-03-04T07:44:57;1.73;1.70;1.52;1.23;9.89;9.88;9.83;9.58;8.11;0.63
70689;SPS30;58266;52.166;5.290;2023-03-04T07:46:59;1.86;1.82;1.64;1.34;10.72;10.71;10.66;10.40;8.82;0.62
70689;SPS30;58266;52.166;5.290;2023-03-04T07:48:59;1.62;1.59;1.43;1.17;9.37;9.37;9.32;9.09;7.71;0.62
70689;SPS30;58266;52.166;5.290;2023-03-04T07:53:05;1.51;1.48;1.32;1.07;8.58;8.58;8.54;8.31;7.03;0.62
70689;SPS30;58266;52.166;5.290;2023-03-04T07:55:07;1.64;1.60;1.40;1.09;8.76;8.75;8.69;8.41;7.04;0.65
70689;SPS30;58266;52.166;5.290;2023-03-04T07:57:08;1.92;1.88;1.65;1.30;10.44;10.43;10.37;10.05;8.43;0.64
70689;SPS30;58266;52.166;5.290;2023-03-04T07:59:09;1.42;1.39;1.23;0.97;7.79;7.79;7.74;7.51;6.31;0.65